createdAt,value
2023-03-06T00:08:27.649Z,3.81
2023-03-06T00:18:48.999Z,3.52
2023-03-06T00:29:10.372Z,3.26
2023-03-06T00:39:31.719Z,3.05
2023-03-06T00:49:53.080Z,3.00
2023-03-06T01:00:14.888Z,2.86
2023-03-06T01:10:40.034Z,2.89
2023-03-06T01:21:01.938Z,2.82
2023-03-06T01:31:23.833Z,2.79
2023-03-06T01:41:45.247Z,2.71
2023-03-06T01:52:08.969Z,2.76
2023-03-06T02:02:30.522Z,2.73
2023-03-06T02:12:52.092Z,2.78
2023-03-06T02:23:32.398Z,2.77
2023-03-06T02:34:04.714Z,2.76
2023-03-06T02:44:27.122Z,2.82
2023-03-06T02:54:48.511Z,2.84
2023-03-06T03:05:09.883Z,2.84
2023-03-06T03:15:31.233Z,2.78
2023-03-06T03:25:52.948Z,2.53
2023-03-06T03:36:14.339Z,2.50
2023-03-06T03:46:35.774Z,2.47
2023-03-06T03:56:57.171Z,2.46
2023-03-06T04:07:18.701Z,2.52
2023-03-06T04:17:40.098Z,2.51
2023-03-06T04:28:01.735Z,2.54
2023-03-06T04:38:23.132Z,2.48
2023-03-06T04:48:44.573Z,2.52
2023-03-06T04:59:05.965Z,2.50
2023-03-06T05:09:27.389Z,2.47
2023-03-06T05:19:48.766Z,2.52
2023-03-06T05:30:12.553Z,2.43
2023-03-06T05:40:33.945Z,2.43
2023-03-06T05:50:59.195Z,2.39
2023-03-06T06:01:21.229Z,2.38
2023-03-06T06:11:42.609Z,2.39
2023-03-06T06:22:04.666Z,2.31
2023-03-06T06:32:26.073Z,2.25
2023-03-06T06:42:47.583Z,2.25
2023-03-06T06:53:08.993Z,2.26
2023-03-06T07:03:30.371Z,2.20
2023-03-06T07:13:51.788Z,2.12
2023-03-06T07:24:13.294Z,2.01
2023-03-06T07:34:34.665Z,1.94
2023-03-06T07:44:56.023Z,1.92
2023-03-06T07:55:17.454Z,1.96
2023-03-06T08:05:38.994Z,1.79
2023-03-06T08:16:00.519Z,1.85
2023-03-06T08:26:23.700Z,1.92
2023-03-06T08:36:45.126Z,1.92
2023-03-06T08:47:06.583Z,2.03
2023-03-06T08:57:27.930Z,2.06
2023-03-06T09:07:49.518Z,2.10
2023-03-06T09:18:10.925Z,2.15
2023-03-06T09:28:32.397Z,2.23
2023-03-06T09:38:53.811Z,2.18
2023-03-06T09:49:26.058Z,2.39
2023-03-06T09:59:48.572Z,2.55
2023-03-06T10:10:24.002Z,2.82
2023-03-06T10:20:45.362Z,2.99
2023-03-06T10:31:18.486Z,3.22
2023-03-06T10:41:39.872Z,3.18
2023-03-06T10:52:07.382Z,3.19
2023-03-06T11:02:33.216Z,3.28
2023-03-06T11:12:57.677Z,3.42
2023-03-06T11:23:21.854Z,3.39
2023-03-06T11:34:06.554Z,3.46
2023-03-06T11:44:40.192Z,3.42
2023-03-06T11:55:01.797Z,3.58
2023-03-06T12:05:38.770Z,3.85
2023-03-06T12:16:18.542Z,4.10
2023-03-06T12:26:58.698Z,4.47
2023-03-06T12:37:29.333Z,4.76
2023-03-06T12:47:53.701Z,5.06
2023-03-06T12:58:30.522Z,5.33
2023-03-06T13:08:58.713Z,5.40
2023-03-06T13:19:25.016Z,5.45
2023-03-06T13:29:50.824Z,5.59
2023-03-06T13:40:12.169Z,5.67
2023-03-06T13:50:39.561Z,5.93
2023-03-06T14:01:00.893Z,6.03
2023-03-06T14:11:22.284Z,6.02
2023-03-06T14:21:54.621Z,6.04
2023-03-06T14:32:17.781Z,6.02
2023-03-06T14:42:39.217Z,5.99
2023-03-06T14:53:04.507Z,6.10
2023-03-06T15:03:46.569Z,6.06
2023-03-06T15:14:17.415Z,6.10
2023-03-06T15:24:38.848Z,6.09
2023-03-06T15:35:19.134Z,6.28
2023-03-06T15:45:40.580Z,6.20
2023-03-06T15:56:02.155Z,6.00
2023-03-06T16:06:24.452Z,5.95
2023-03-06T16:16:46.138Z,5.87
2023-03-06T16:27:15.185Z,5.77
2023-03-06T16:37:36.795Z,5.74
2023-03-06T16:47:59.426Z,5.71
2023-03-06T16:58:21.969Z,5.62
2023-03-06T17:08:43.461Z,5.51
2023-03-06T17:19:04.885Z,5.51
2023-03-06T17:29:28.044Z,5.47
2023-03-06T17:39:49.848Z,5.33
2023-03-06T17:50:11.483Z,5.21
2023-03-06T18:00:32.906Z,5.13
2023-03-06T18:11:03.418Z,5.15
2023-03-06T18:21:25.368Z,5.04
2023-03-06T18:31:49.848Z,5.03
2023-03-06T18:42:11.237Z,5.07
2023-03-06T18:52:33.654Z,5.06
2023-03-06T19:02:55.058Z,5.01
2023-03-06T19:13:16.442Z,5.03
2023-03-06T19:23:38.063Z,5.09
2023-03-06T19:33:59.526Z,5.11
2023-03-06T19:44:20.941Z,5.19
2023-03-06T19:54:42.465Z,5.21
2023-03-06T20:05:04.350Z,5.00
2023-03-06T20:15:27.954Z,4.72
2023-03-06T20:25:49.500Z,4.35
2023-03-06T20:36:18.484Z,4.10
2023-03-06T20:46:39.968Z,4.11
2023-03-06T20:57:01.389Z,4.08
2023-03-06T21:07:22.754Z,4.00
2023-03-06T21:17:44.099Z,3.99
2023-03-06T21:28:05.517Z,4.02
2023-03-06T21:38:26.963Z,4.06
2023-03-06T21:48:48.366Z,4.01
2023-03-06T21:59:09.935Z,4.04
2023-03-06T22:09:31.330Z,4.05
2023-03-06T22:19:52.698Z,4.07
2023-03-06T22:30:14.198Z,4.17
2023-03-06T22:40:35.593Z,4.24
2023-03-06T22:51:01.277Z,4.25
2023-03-06T23:01:25.064Z,4.28
2023-03-06T23:11:46.864Z,4.27
2023-03-06T23:22:08.244Z,4.24
2023-03-06T23:32:30.860Z,4.15
2023-03-06T23:42:52.231Z,4.10
2023-03-06T23:53:14.561Z,4.08
